McCall, ID

12:31 PM MDT on June 02, 2015 (GMT -0600)
McCall | | Change Station
CLOSE
Current Station
Airport
Location: McCall,
Elevation: 5020 ft
Nearby Weather Stations

Elev 5020 ft 44.89 °N, 116.10 °W | Updated 28 minutes ago

Overcast
Overcast
52 °F
Feels Like 52 °F
N
6
Wind Variable Wind from North

Today
High -- | Low -- °F
--% Chance of Precip.
Yesterday
High -- | Low -- °F
Precip. -- in
6:00 AM 9:24 PM
Full, 100% visible
Pressure 30.04 in
Visibility 10.0 miles
Clouds Few 1400 ft
Mostly Cloudy 1900 ft
Overcast 5000 ft
Dew Point 45 °F
Humidity 77%
Rainfall 0.03 in
Snow Depth Not available.
UV 3 out of 12
Pollen 5.90 out of 12
Air Quality Not available.
Flu Activity No Activity
SPECI KMYL 021803Z AUTO 01005KT 10SM FEW014 BKN019 OVC050 11/07 A3004 RMK AO2 RAE1757 P0000 T01110072

More Conditions Fewer Conditions

Pressure 30.04 in
Visibility 10.0 miles
Clouds Few 1400 ft
Mostly Cloudy 1900 ft
Overcast 5000 ft
Dew Point 45 °F
Humidity 77%
Rainfall 0.03 in
Snow Depth Not available.
UV 3 out of 12
Pollen 5.90 out of 12
Air Quality Not available.
Flu Activity No Activity
SPECI KMYL 021803Z AUTO 01005KT 10SM FEW014 BKN019 OVC050 11/07 A3004 RMK AO2 RAE1757 P0000 T01110072

More Conditions Fewer Conditions

10-Day Weather Forecast

×

Almanac

Astronomy

Jun. 02, 2015 Rise Set
Actual Time
Civil Twilight
Nautical Twilight
Astronomical Twilight
Moon
Length of Visible Light
Length of Day
Tomorrow will be .
, % of the Moon is Illuminated

Today's Extremes

State Highs State Lows

Community

WunderPhotos

Upload Photos

1,825,997 photos uploaded!

WunderBlogs® & News

Nearby

Air Quality

  Air Quality AQ Index Pollutant
Not available.

Snow Depth

Station Depth Elevation

Earthquake Activity

City Distance Mag. Time & Date
Minimum magnitude displayed is 2.5.

Coastal Water Temperatures

Place Temperature

Stations

Nearby Weather Stations

Station Location Temp. Windchill Dew Point Humidity Wind Precip. Elev Updated Type